Ponder, Texas
Current Conditions -  °F | °C
As of 10:53 AM on Thursday 18 Dec 2014 (Local Time) from KDTO Reporting Station
Haze Haze  
Wind Chill: 45°   Ceiling: 400
Heat Index: 45°   Visibility: 3mi
Dew Point: 44°   Wind: 0mph
Humidity: 97%   Direction: NA
Pressure: 30.18"   Gusts: NA
Location:  33.18°N, 97.29°W
Report Text: KDTO 181653Z 00000KT 3SM BR OVC004 07/07 A3018 RMK AO2 SLP220 T00720067
Loading
Personal Weather Stations






























Interactive Weather Map New forecast layout! Learn more

10-Day Weather Forecast

Advertisements
Track Severe Weather on mobile